Time,TemperatureF,DewpointF,PressureIn,WindDirection,WindDirectionDegrees,WindSpeedMPH,WindSpeedGustMPH,Humidity,HourlyPrecipIn,Conditions,Clouds,dailyrainin,SoftwareType,DateUTC
2013-07-26 00:11:00,72.3,61.9,29.37,NW,315,3.8,5.4,63,0.00,,,0.00,fowsr,2013-07-25 22:11:00,
2013-07-26 00:42:00,71.1,62.4,29.38,West,270,3.1,4.5,68,0.00,,,0.00,fowsr,2013-07-25 22:42:00,
2013-07-26 01:11:00,72.0,61.2,29.38,NE,45,0.7,2.2,62,0.00,,,0.00,fowsr,2013-07-25 23:11:00,
2013-07-26 01:42:00,70.9,60.2,29.37,East,90,2.2,3.1,62,0.00,,,0.00,fowsr,2013-07-25 23:42:00,
2013-07-26 02:11:00,72.5,59.9,29.37,North,0,2.2,3.8,57,0.00,,,0.00,fowsr,2013-07-26 00:11:00,
2013-07-26 02:42:00,72.7,59.6,29.38,NW,315,2.2,4.5,56,0.00,,,0.00,fowsr,2013-07-26 00:42:00,
2013-07-26 03:11:00,72.7,59.3,29.37,North,0,1.6,3.8,55,0.00,,,0.00,fowsr,2013-07-26 01:11:00,
2013-07-26 03:42:00,71.8,58.8,29.38,NW,315,0.7,2.2,56,0.00,,,0.00,fowsr,2013-07-26 01:42:00,
2013-07-26 04:11:00,69.8,58.8,29.38,WNW,292,0.0,0.0,61,0.00,,,0.00,fowsr,2013-07-26 02:11:00,
2013-07-26 04:42:00,68.4,59.5,29.38,SE,135,0.0,0.0,67,0.00,,,0.00,fowsr,2013-07-26 02:42:00,
2013-07-26 05:11:00,67.6,60.4,29.38,West,270,0.0,0.0,72,0.00,,,0.00,fowsr,2013-07-26 03:11:00,
2013-07-26 05:42:00,68.4,60.4,29.38,West,270,0.0,0.0,70,0.00,,,0.00,fowsr,2013-07-26 03:42:00,
2013-07-26 06:11:00,70.3,60.7,29.38,NE,45,0.7,1.6,65,0.00,,,0.00,fowsr,2013-07-26 04:11:00,
2013-07-26 06:42:00,75.9,62.6,29.38,NE,45,0.7,2.2,56,0.00,,,0.00,fowsr,2013-07-26 04:42:00,
2013-07-26 07:11:00,77.9,62.8,29.39,NE,45,0.7,2.2,52,0.00,,,0.00,fowsr,2013-07-26 05:11:00,
2013-07-26 07:42:00,82.0,65.2,29.39,SW,225,0.7,1.6,49,0.00,,,0.00,fowsr,2013-07-26 05:42:00,
2013-07-26 08:11:00,82.4,65.1,29.39,East,90,3.1,3.8,48,0.00,,,0.00,fowsr,2013-07-26 06:11:00,
2013-07-26 08:42:00,83.3,64.9,29.39,South,180,3.1,4.5,46,0.00,,,0.00,fowsr,2013-07-26 06:42:00,
2013-07-26 09:11:00,86.9,65.0,29.39,South,180,0.0,0.7,40,0.00,,,0.00,fowsr,2013-07-26 07:11:00,
2013-07-26 09:42:00,86.4,62.8,29.39,NW,315,0.7,2.2,37,0.00,,,0.00,fowsr,2013-07-26 07:42:00,
2013-07-26 10:11:00,87.6,62.6,29.39,South,180,3.8,5.4,35,0.00,,,0.00,fowsr,2013-07-26 08:11:00,
2013-07-26 10:42:00,89.6,63.7,29.39,NE,45,0.7,1.6,34,0.00,,,0.00,fowsr,2013-07-26 08:42:00,
2013-07-26 11:11:00,89.6,63.7,29.40,South,180,2.2,3.8,34,0.00,,,0.00,fowsr,2013-07-26 09:11:00,
2013-07-26 11:42:00,88.3,63.9,29.39,NW,315,9.2,13.6,36,0.00,,,0.00,fowsr,2013-07-26 09:42:00,
2013-07-26 12:11:00,88.7,63.6,29.38,West,270,6.9,9.8,35,0.00,,,0.00,fowsr,2013-07-26 10:11:00,
2013-07-26 12:42:00,88.0,62.9,29.37,NW,315,7.6,15.2,35,0.00,,,0.00,fowsr,2013-07-26 10:42:00,
2013-07-26 13:11:00,89.8,62.5,29.36,NE,45,3.8,7.6,32,0.00,,,0.00,fowsr,2013-07-26 11:11:00,
2013-07-26 13:42:00,92.3,64.6,29.36,NW,315,3.1,3.8,32,0.00,,,0.00,fowsr,2013-07-26 11:42:00,
2013-07-26 14:11:00,92.1,64.5,29.35,West,270,6.9,9.2,32,0.00,,,0.00,fowsr,2013-07-26 12:11:00,
2013-07-26 14:42:00,91.6,64.0,29.35,NW,315,5.4,7.6,32,0.00,,,0.00,fowsr,2013-07-26 12:42:00,
2013-07-26 15:11:00,92.8,62.9,29.34,North,0,1.6,3.8,29,0.00,,,0.00,fowsr,2013-07-26 13:11:00,
2013-07-26 15:42:00,96.3,59.6,29.33,West,270,3.1,4.5,22,0.00,,,0.00,fowsr,2013-07-26 13:42:00,
2013-07-26 16:11:00,95.5,60.0,29.32,NW,315,3.8,6.0,23,0.00,,,0.00,fowsr,2013-07-26 14:11:00,
2013-07-26 16:42:00,95.9,59.3,29.32,NW,315,6.9,9.8,22,0.00,,,0.00,fowsr,2013-07-26 14:42:00,
2013-07-26 17:11:00,94.8,59.4,29.31,West,270,0.0,1.6,23,0.00,,,0.00,fowsr,2013-07-26 15:11:00,
2013-07-26 17:42:00,96.3,60.6,29.31,North,0,1.6,4.5,23,0.00,,,0.00,fowsr,2013-07-26 15:42:00,
2013-07-26 18:11:00,95.2,59.7,29.31,SE,135,2.2,3.8,23,0.00,,,0.00,fowsr,2013-07-26 16:11:00,
2013-07-26 18:42:00,94.8,60.4,29.31,West,270,1.6,2.2,24,0.00,,,0.00,fowsr,2013-07-26 16:42:00,
2013-07-26 19:11:00,93.7,62.1,29.31,West,270,0.7,2.2,27,0.00,,,0.00,fowsr,2013-07-26 17:11:00,
2013-07-26 19:42:00,89.2,61.3,29.31,NW,315,0.7,1.6,31,0.00,,,0.00,fowsr,2013-07-26 17:42:00,
2013-07-26 20:11:00,84.9,60.3,29.31,North,0,0.7,1.6,35,0.00,,,0.00,fowsr,2013-07-26 18:11:00,
2013-07-26 20:42:00,83.5,60.9,29.32,NW,315,0.7,1.6,38,0.00,,,0.00,fowsr,2013-07-26 18:42:00,
2013-07-26 21:11:00,83.7,61.0,29.33,North,0,1.6,2.2,38,0.00,,,0.00,fowsr,2013-07-26 19:11:00,
2013-07-26 21:42:00,79.9,61.4,29.33,NE,45,0.0,0.7,45,0.00,,,0.00,fowsr,2013-07-26 19:42:00,
2013-07-26 22:11:00,79.5,61.1,29.33,NE,45,0.0,0.0,45,0.00,,,0.00,fowsr,2013-07-26 20:11:00,
2013-07-26 22:42:00,78.8,61.4,29.34,WSW,247,0.0,0.0,47,0.00,,,0.00,fowsr,2013-07-26 20:42:00,
2013-07-26 23:11:00,78.8,61.4,29.34,South,180,0.0,0.0,47,0.00,,,0.00,fowsr,2013-07-26 21:11:00,
2013-07-26 23:42:00,77.7,61.8,29.34,South,180,0.0,0.0,50,0.00,,,0.00,fowsr,2013-07-26 21:42:00,